createdAt,value
2018-12-02T00:00:41.768Z,8.00
2018-12-02T00:03:10.072Z,7.97
2018-12-02T00:05:39.156Z,7.97
2018-12-02T00:08:07.747Z,7.97
2018-12-02T00:10:36.510Z,7.89
2018-12-02T00:13:04.784Z,7.88
2018-12-02T00:15:33.304Z,7.89
2018-12-02T00:18:01.953Z,7.92
2018-12-02T00:20:30.274Z,7.95
2018-12-02T00:22:58.530Z,7.94
2018-12-02T00:25:26.807Z,7.93
2018-12-02T00:27:59.379Z,7.97
2018-12-02T00:30:29.639Z,7.99
2018-12-02T00:32:58.032Z,7.95
2018-12-02T00:35:26.242Z,7.88
2018-12-02T00:37:58.721Z,7.95
2018-12-02T00:40:26.955Z,7.98
2018-12-02T00:42:58.183Z,7.97
2018-12-02T00:45:27.487Z,8.00
2018-12-02T00:47:55.752Z,7.95
2018-12-02T00:50:23.984Z,7.98
2018-12-02T00:52:54.347Z,7.96
2018-12-02T00:55:25.677Z,7.99
2018-12-02T00:57:53.876Z,7.99
2018-12-02T01:00:22.119Z,7.97
2018-12-02T01:02:51.061Z,8.01
2018-12-02T01:05:20.368Z,8.02
2018-12-02T01:07:48.683Z,7.99
2018-12-02T01:10:19.514Z,8.03
2018-12-02T01:12:48.633Z,8.04
2018-12-02T01:15:19.083Z,8.05
2018-12-02T01:17:47.350Z,8.05
2018-12-02T01:20:16.573Z,8.01
2018-12-02T01:22:44.821Z,7.98
2018-12-02T01:25:13.842Z,7.99
2018-12-02T01:27:42.590Z,8.10
2018-12-02T01:30:13.857Z,8.06
2018-12-02T01:32:42.041Z,7.99
2018-12-02T01:35:10.915Z,7.97
2018-12-02T01:37:39.122Z,8.00
2018-12-02T01:40:16.174Z,8.01
2018-12-02T01:42:44.405Z,8.07
2018-12-02T01:45:20.745Z,8.06
2018-12-02T01:47:49.013Z,8.10
2018-12-02T01:50:19.186Z,8.05
2018-12-02T01:52:48.444Z,8.11
2018-12-02T01:55:16.671Z,8.06
2018-12-02T01:57:44.989Z,8.13
2018-12-02T02:00:16.313Z,8.13
2018-12-02T02:02:44.740Z,8.08
2018-12-02T02:05:13.214Z,8.11
2018-12-02T02:07:41.439Z,8.10
2018-12-02T02:10:17.987Z,8.09
2018-12-02T02:12:46.188Z,8.14
2018-12-02T02:15:15.492Z,8.09
2018-12-02T02:17:43.854Z,8.09
2018-12-02T02:20:15.207Z,8.05
2018-12-02T02:22:43.702Z,8.06
2018-12-02T02:25:13.011Z,8.08
2018-12-02T02:27:42.317Z,8.08
2018-12-02T02:30:13.985Z,8.01
2018-12-02T02:32:42.221Z,7.94
2018-12-02T02:35:10.883Z,7.97
2018-12-02T02:37:39.232Z,7.95
2018-12-02T02:40:17.966Z,8.02
2018-12-02T02:42:46.393Z,7.95
2018-12-02T02:45:15.084Z,7.96
2018-12-02T02:47:43.363Z,7.98
2018-12-02T02:50:14.750Z,7.98
2018-12-02T02:52:45.142Z,7.87
2018-12-02T02:55:13.374Z,7.88
2018-12-02T02:57:41.640Z,7.93
2018-12-02T03:00:13.999Z,7.97
2018-12-02T03:02:42.210Z,7.92
2018-12-02T03:05:11.372Z,7.95
2018-12-02T03:07:39.609Z,8.07
2018-12-02T03:10:10.347Z,8.13
2018-12-02T03:12:38.566Z,8.06
2018-12-02T03:15:09.601Z,7.99
2018-12-02T03:17:37.851Z,8.01
2018-12-02T03:20:08.513Z,8.02
2018-12-02T03:22:36.749Z,8.07
2018-12-02T03:25:06.713Z,8.13
2018-12-02T03:27:34.902Z,8.15
2018-12-02T03:30:04.084Z,8.19
2018-12-02T03:32:32.299Z,8.16
2018-12-02T03:35:00.556Z,8.17
2018-12-02T03:37:28.778Z,8.13
2018-12-02T03:39:56.987Z,8.23
2018-12-02T03:42:25.257Z,8.26
2018-12-02T03:44:53.489Z,8.24
2018-12-02T03:47:21.712Z,8.25
2018-12-02T03:49:50.014Z,8.36
2018-12-02T03:52:18.249Z,8.36
2018-12-02T03:54:46.487Z,8.38
2018-12-02T03:57:14.694Z,8.44
2018-12-02T03:59:42.994Z,8.48
2018-12-02T04:02:11.286Z,8.43
2018-12-02T04:04:39.506Z,8.47
2018-12-02T04:07:20.425Z,8.53
2018-12-02T04:09:48.649Z,8.55
2018-12-02T04:12:16.891Z,8.51
2018-12-02T04:14:45.089Z,8.56
2018-12-02T04:17:13.293Z,8.57
2018-12-02T04:19:41.520Z,8.57
2018-12-02T04:22:09.737Z,8.55
2018-12-02T04:24:37.971Z,8.60
2018-12-02T04:27:06.289Z,8.60
2018-12-02T04:29:34.505Z,8.55
2018-12-02T04:32:02.745Z,8.58
2018-12-02T04:34:30.957Z,8.58
2018-12-02T04:36:59.166Z,8.64
2018-12-02T04:39:27.460Z,8.72
2018-12-02T04:41:55.674Z,8.75
2018-12-02T04:44:23.893Z,8.73
2018-12-02T04:46:52.105Z,8.75
2018-12-02T04:49:20.314Z,8.70
2018-12-02T04:51:48.596Z,8.73
2018-12-02T04:54:16.840Z,8.72
2018-12-02T04:56:45.058Z,8.73
2018-12-02T04:59:13.296Z,8.75
2018-12-02T05:01:41.518Z,8.69
2018-12-02T05:04:09.781Z,8.73
2018-12-02T05:06:38.047Z,8.76
2018-12-02T05:09:07.263Z,8.72
2018-12-02T05:11:35.600Z,8.77
2018-12-02T05:14:03.976Z,8.82
2018-12-02T05:16:32.216Z,8.78
2018-12-02T05:19:00.484Z,8.84
2018-12-02T05:21:28.738Z,8.87
2018-12-02T05:23:56.963Z,8.87
2018-12-02T05:26:25.199Z,8.94
2018-12-02T05:28:53.386Z,8.91
2018-12-02T05:31:21.591Z,8.86
2018-12-02T05:33:49.893Z,8.90
2018-12-02T05:36:18.094Z,8.82
2018-12-02T05:38:46.377Z,8.81
2018-12-02T05:41:14.650Z,8.80
2018-12-02T05:43:43.069Z,8.79
2018-12-02T05:46:11.310Z,8.80
2018-12-02T05:48:39.582Z,8.78
2018-12-02T05:51:07.835Z,8.85
2018-12-02T05:53:36.051Z,8.83
2018-12-02T05:56:04.369Z,8.77
2018-12-02T05:58:32.589Z,8.86
2018-12-02T06:01:00.874Z,8.73
2018-12-02T06:03:29.143Z,8.71
2018-12-02T06:05:57.391Z,8.74
2018-12-02T06:08:25.631Z,8.69
2018-12-02T06:10:53.826Z,8.69
2018-12-02T06:13:22.081Z,8.70
2018-12-02T06:15:50.299Z,8.64
2018-12-02T06:18:18.561Z,8.76
2018-12-02T06:20:46.745Z,8.76
2018-12-02T06:23:14.957Z,8.73
2018-12-02T06:25:46.448Z,8.75
2018-12-02T06:28:11.523Z,8.77
2018-12-02T06:30:39.834Z,8.79
2018-12-02T06:33:08.077Z,8.83
2018-12-02T06:35:36.330Z,8.83
2018-12-02T06:38:05.333Z,8.81
2018-12-02T06:40:33.549Z,8.78
2018-12-02T06:43:01.765Z,8.82
2018-12-02T06:45:30.106Z,8.86
2018-12-02T06:47:58.315Z,8.84
2018-12-02T06:50:27.585Z,8.90
2018-12-02T06:52:56.728Z,8.85
2018-12-02T06:55:59.209Z,8.88
2018-12-02T06:58:38.452Z,8.81
2018-12-02T07:01:16.302Z,8.77
2018-12-02T07:03:49.744Z,8.73
2018-12-02T07:06:18.402Z,8.67
2018-12-02T07:08:46.632Z,8.62
2018-12-02T07:11:14.814Z,8.63
2018-12-02T07:13:43.045Z,8.56
2018-12-02T07:16:11.344Z,8.56
2018-12-02T07:18:42.085Z,8.60
2018-12-02T07:21:15.355Z,8.57
2018-12-02T07:23:47.257Z,8.54
2018-12-02T07:26:17.403Z,8.52
2018-12-02T07:28:45.612Z,8.47
2018-12-02T07:31:13.900Z,8.49
2018-12-02T07:33:42.142Z,8.46
2018-12-02T07:36:10.469Z,8.53
2018-12-02T07:38:41.660Z,8.49
2018-12-02T07:41:10.472Z,8.57
2018-12-02T07:43:38.736Z,8.58
2018-12-02T07:46:07.057Z,8.50
2018-12-02T07:48:35.306Z,8.53
2018-12-02T07:51:03.580Z,8.56
2018-12-02T07:53:31.777Z,8.52
2018-12-02T07:58:52.809Z,8.47
2018-12-02T08:01:21.045Z,8.47
2018-12-02T08:03:49.334Z,8.41
2018-12-02T08:06:17.516Z,8.48
2018-12-02T08:08:45.817Z,8.40
2018-12-02T08:11:14.049Z,8.46
2018-12-02T08:14:01.026Z,8.40
2018-12-02T08:16:29.270Z,8.42
2018-12-02T08:18:57.466Z,8.43
2018-12-02T08:21:25.689Z,8.49
2018-12-02T08:23:53.944Z,8.45
2018-12-02T08:26:22.188Z,8.44
2018-12-02T08:28:50.470Z,8.50
2018-12-02T08:31:18.693Z,8.42
2018-12-02T08:33:46.918Z,8.43
2018-12-02T08:36:15.143Z,8.52
2018-12-02T08:38:43.387Z,8.48
2018-12-02T08:41:11.636Z,8.48
2018-12-02T08:43:39.877Z,8.53
2018-12-02T08:46:08.162Z,8.46
2018-12-02T08:48:36.387Z,8.54
2018-12-02T08:51:04.624Z,8.53
2018-12-02T08:53:32.826Z,8.53
2018-12-02T08:56:01.089Z,8.51
2018-12-02T08:58:29.418Z,8.43
2018-12-02T09:03:51.235Z,8.54
2018-12-02T09:06:19.479Z,8.55
2018-12-02T09:08:47.708Z,8.60
2018-12-02T09:11:15.962Z,8.55
2018-12-02T09:13:44.239Z,8.52
2018-12-02T09:16:12.538Z,8.63
2018-12-02T09:18:40.797Z,8.61
2018-12-02T09:21:09.005Z,8.60
2018-12-02T09:23:37.273Z,8.57
2018-12-02T09:26:05.934Z,8.64
2018-12-02T09:28:34.230Z,8.63
2018-12-02T09:31:02.597Z,8.55
2018-12-02T09:33:30.835Z,8.56
2018-12-02T09:35:59.089Z,8.62
2018-12-02T09:38:27.318Z,8.68
2018-12-02T09:40:55.559Z,8.54
2018-12-02T09:43:23.900Z,8.66
2018-12-02T09:45:52.235Z,8.61
2018-12-02T09:48:20.507Z,8.60
2018-12-02T09:50:48.892Z,8.62
2018-12-02T09:53:17.146Z,8.64
2018-12-02T09:55:47.053Z,8.64
2018-12-02T09:58:22.176Z,8.61
2018-12-02T10:00:50.414Z,8.63
2018-12-02T10:03:18.655Z,8.62
2018-12-02T10:05:46.925Z,8.64
2018-12-02T10:08:15.145Z,8.63
2018-12-02T10:10:43.740Z,8.59
2018-12-02T10:13:13.914Z,8.64
2018-12-02T10:15:43.221Z,8.64
2018-12-02T10:18:11.502Z,8.65
2018-12-02T10:20:39.771Z,8.68
2018-12-02T10:23:08.429Z,8.66
2018-12-02T10:25:36.723Z,8.68
2018-12-02T10:28:05.318Z,8.70
2018-12-02T10:30:41.035Z,8.67
2018-12-02T10:33:09.569Z,8.69
2018-12-02T10:35:37.795Z,8.71
2018-12-02T10:38:07.337Z,8.73
2018-12-02T10:40:35.905Z,8.76
2018-12-02T10:43:04.127Z,8.81
2018-12-02T10:45:32.365Z,8.80
2018-12-02T10:48:01.342Z,8.77
2018-12-02T10:50:34.878Z,8.81
2018-12-02T10:53:16.967Z,8.77
2018-12-02T10:55:46.473Z,8.82
2018-12-02T10:58:16.270Z,8.79
2018-12-02T11:00:50.061Z,8.78
2018-12-02T11:03:18.334Z,8.81
2018-12-02T11:05:46.577Z,8.78
2018-12-02T11:08:14.792Z,8.74
2018-12-02T11:10:42.990Z,8.79
2018-12-02T11:13:11.222Z,8.82
2018-12-02T11:15:39.780Z,8.84
2018-12-02T11:18:09.843Z,8.84
2018-12-02T11:20:38.068Z,8.89
2018-12-02T11:23:07.011Z,8.83
2018-12-02T11:25:35.567Z,8.82
2018-12-02T11:28:03.829Z,8.81
2018-12-02T11:30:32.047Z,8.83
2018-12-02T11:33:00.277Z,8.87
2018-12-02T11:35:28.459Z,8.87
2018-12-02T11:37:56.689Z,8.89
2018-12-02T11:40:24.978Z,8.89
2018-12-02T11:42:53.957Z,8.98
2018-12-02T11:45:22.175Z,8.91
2018-12-02T11:47:52.546Z,8.87
2018-12-02T11:50:24.143Z,8.89
2018-12-02T11:52:52.335Z,8.88
2018-12-02T11:55:21.477Z,8.90
2018-12-02T11:57:49.813Z,8.95
2018-12-02T12:00:23.082Z,8.98
2018-12-02T12:02:51.404Z,8.95
2018-12-02T12:05:19.674Z,8.97
2018-12-02T12:07:48.802Z,8.99
2018-12-02T12:10:18.116Z,8.97
2018-12-02T12:12:47.385Z,8.98
2018-12-02T12:15:19.506Z,8.97
2018-12-02T12:17:47.748Z,9.04
2018-12-02T12:20:20.431Z,9.09
2018-12-02T12:22:48.718Z,9.02
2018-12-02T12:25:17.009Z,8.99
2018-12-02T12:27:45.276Z,8.99
2018-12-02T12:30:17.889Z,8.99
2018-12-02T12:32:46.097Z,9.02
2018-12-02T12:35:15.703Z,9.03
2018-12-02T12:37:43.949Z,9.04
2018-12-02T12:40:13.477Z,9.06
2018-12-02T12:42:42.755Z,9.04
2018-12-02T12:45:12.433Z,9.13
2018-12-02T12:47:41.323Z,9.09
2018-12-02T12:50:15.576Z,9.18
2018-12-02T12:52:43.805Z,9.10
2018-12-02T12:55:13.947Z,9.14
2018-12-02T12:57:42.285Z,9.13
2018-12-02T13:00:19.290Z,9.23
2018-12-02T13:02:47.699Z,9.22
2018-12-02T13:05:19.125Z,9.19
2018-12-02T13:07:48.190Z,9.15
2018-12-02T13:10:16.714Z,9.12
2018-12-02T13:12:44.957Z,9.12
2018-12-02T13:15:15.233Z,9.24
2018-12-02T13:17:45.971Z,9.26
2018-12-02T13:20:17.515Z,9.24
2018-12-02T13:22:45.774Z,9.21
2018-12-02T13:25:14.964Z,9.30
2018-12-02T13:27:44.155Z,9.28
2018-12-02T13:30:14.554Z,9.33
2018-12-02T13:32:43.151Z,9.38
2018-12-02T13:40:56.242Z,9.31
2018-12-02T13:43:25.161Z,9.34
2018-12-02T13:45:53.429Z,9.37
2018-12-02T13:48:21.823Z,9.43
2018-12-02T13:50:50.203Z,9.42
2018-12-02T13:53:18.429Z,9.41
2018-12-02T13:55:46.848Z,9.45
2018-12-02T13:58:15.427Z,9.40
2018-12-02T14:00:43.816Z,9.47
2018-12-02T14:03:13.283Z,9.43
2018-12-02T14:05:46.855Z,9.49
2018-12-02T14:08:15.160Z,9.47
2018-12-02T14:10:43.972Z,9.50
2018-12-02T14:13:14.787Z,9.49
2018-12-02T14:15:51.999Z,9.58
2018-12-02T14:18:31.163Z,9.63
2018-12-02T14:20:59.478Z,9.70
2018-12-02T14:23:28.160Z,9.70
2018-12-02T14:25:58.556Z,9.74
2018-12-02T14:28:29.740Z,9.80
2018-12-02T14:30:57.953Z,9.80
2018-12-02T14:33:26.163Z,9.90
2018-12-02T14:35:54.410Z,9.86
2018-12-02T14:38:22.658Z,9.88
2018-12-02T14:40:50.964Z,9.95
2018-12-02T14:43:19.242Z,9.95
2018-12-02T14:45:47.454Z,9.97
2018-12-02T14:48:15.766Z,9.95
2018-12-02T14:50:44.010Z,9.94
2018-12-02T14:53:12.247Z,9.93
2018-12-02T14:55:40.490Z,10.04
2018-12-02T14:58:08.837Z,10.07
2018-12-02T15:00:37.062Z,10.11
2018-12-02T15:03:05.608Z,10.20
2018-12-02T15:05:33.861Z,10.13
2018-12-02T15:08:02.140Z,10.23
2018-12-02T15:10:30.430Z,10.25
2018-12-02T15:12:58.783Z,10.22
2018-12-02T15:15:27.266Z,10.20
2018-12-02T15:17:55.618Z,10.26
2018-12-02T15:20:23.965Z,10.28
2018-12-02T15:22:52.237Z,10.35
2018-12-02T15:25:20.474Z,10.51
2018-12-02T15:27:48.715Z,10.50
2018-12-02T15:30:18.546Z,10.58
2018-12-02T15:32:48.985Z,10.50
2018-12-02T15:35:17.227Z,10.50
2018-12-02T15:37:45.448Z,10.50
2018-12-02T15:43:06.911Z,10.57
2018-12-02T15:48:27.645Z,10.66
2018-12-02T15:50:55.894Z,10.64
2018-12-02T15:53:24.132Z,10.65
2018-12-02T15:55:52.365Z,10.62
2018-12-02T15:58:20.875Z,10.65
2018-12-02T16:00:49.198Z,10.72
2018-12-02T16:03:17.443Z,10.83
2018-12-02T16:05:45.710Z,10.83
2018-12-02T16:08:13.954Z,10.83
2018-12-02T16:10:42.199Z,10.88
2018-12-02T16:13:11.542Z,10.90
2018-12-02T16:15:39.803Z,10.91
2018-12-02T16:18:10.608Z,10.90
2018-12-02T16:20:53.841Z,10.96
2018-12-02T16:23:23.328Z,10.99
2018-12-02T16:25:51.552Z,11.09
2018-12-02T16:28:19.889Z,11.05
2018-12-02T16:30:49.527Z,11.14
2018-12-02T16:33:17.772Z,11.07
2018-12-02T16:35:45.994Z,11.09
2018-12-02T16:38:14.249Z,11.06
2018-12-02T16:40:42.550Z,11.05
2018-12-02T16:43:11.005Z,11.06
2018-12-02T16:45:39.432Z,11.11
2018-12-02T16:48:09.220Z,11.13
2018-12-02T16:50:42.956Z,11.17
2018-12-02T16:53:15.760Z,11.14
2018-12-02T16:56:17.260Z,11.16
2018-12-02T16:58:59.167Z,11.22
2018-12-02T17:01:28.606Z,11.27
2018-12-02T17:03:58.507Z,11.35
2018-12-02T17:06:26.906Z,11.39
2018-12-02T17:08:56.290Z,11.43
2018-12-02T17:11:24.596Z,11.40
2018-12-02T17:13:52.871Z,11.39
2018-12-02T17:16:21.200Z,11.38
2018-12-02T17:18:49.447Z,11.39
2018-12-02T17:21:17.701Z,11.37
2018-12-02T17:23:46.059Z,11.40
2018-12-02T17:26:14.186Z,11.36
2018-12-02T17:28:42.427Z,11.31
2018-12-02T17:31:14.489Z,11.31
2018-12-02T17:33:42.767Z,11.34
2018-12-02T17:36:18.139Z,11.34
2018-12-02T17:38:47.464Z,11.35
2018-12-02T17:41:16.190Z,11.33
2018-12-02T17:43:44.404Z,11.36
2018-12-02T17:46:12.636Z,11.38
2018-12-02T17:48:40.904Z,11.38
2018-12-02T17:51:24.303Z,11.34
2018-12-02T17:57:24.533Z,11.36
2018-12-02T18:00:06.668Z,11.38
2018-12-02T18:02:59.804Z,11.38
2018-12-02T18:05:35.956Z,11.42
2018-12-02T18:08:22.648Z,11.41
2018-12-02T18:14:02.175Z,11.45
2018-12-02T18:16:30.493Z,11.45
2018-12-02T18:18:58.730Z,11.41
2018-12-02T18:21:26.993Z,11.43
2018-12-02T18:23:55.270Z,11.44
2018-12-02T18:26:23.563Z,11.42
2018-12-02T18:28:51.899Z,11.40
2018-12-02T18:31:20.178Z,11.43
2018-12-02T18:33:48.428Z,11.40
2018-12-02T18:36:18.870Z,11.41
2018-12-02T18:38:48.254Z,11.42
2018-12-02T18:41:20.458Z,11.41
2018-12-02T18:43:48.738Z,11.45
2018-12-02T18:46:17.680Z,11.47
2018-12-02T18:48:45.934Z,11.47
2018-12-02T18:51:14.356Z,11.45
2018-12-02T18:53:43.028Z,11.44
2018-12-02T18:56:16.390Z,11.38
2018-12-02T18:58:39.907Z,11.37
2018-12-02T19:01:08.208Z,11.36
2018-12-02T19:03:36.456Z,11.35
2018-12-02T19:06:04.709Z,11.34
2018-12-02T19:08:32.958Z,11.35
2018-12-02T19:11:01.434Z,11.34
2018-12-02T19:13:29.711Z,11.39
2018-12-02T19:15:58.001Z,11.41
2018-12-02T19:18:26.502Z,11.48
2018-12-02T19:20:56.891Z,11.47
2018-12-02T19:23:28.407Z,11.56
2018-12-02T19:25:56.730Z,11.50
2018-12-02T19:28:25.122Z,11.57
2018-12-02T19:30:53.461Z,11.58
2018-12-02T19:33:23.288Z,11.54
2018-12-02T19:35:53.875Z,11.57
2018-12-02T19:38:23.520Z,11.52
2018-12-02T19:40:51.960Z,11.49
2018-12-02T19:43:20.304Z,11.47
2018-12-02T19:45:50.838Z,11.47
2018-12-02T19:48:19.166Z,11.55
2018-12-02T19:50:47.809Z,11.54
2018-12-02T19:53:16.158Z,11.57
2018-12-02T19:55:44.467Z,11.61
2018-12-02T19:58:13.714Z,11.61
2018-12-02T20:00:43.454Z,11.61
2018-12-02T20:03:13.064Z,11.68
2018-12-02T20:05:41.782Z,11.71
2018-12-02T20:08:12.220Z,11.70
2018-12-02T20:10:41.891Z,11.73
2018-12-02T20:13:11.486Z,11.77
2018-12-02T20:15:44.979Z,11.80
2018-12-02T20:18:13.359Z,11.83
2018-12-02T20:20:48.807Z,11.85
2018-12-02T20:23:23.173Z,11.89
2018-12-02T20:25:52.518Z,11.90
2018-12-02T20:28:21.666Z,11.92
2018-12-02T20:30:50.058Z,11.97
2018-12-02T20:33:18.413Z,11.95
2018-12-02T20:35:46.757Z,11.98
2018-12-02T20:38:15.164Z,11.97
2018-12-02T20:40:43.566Z,11.98
2018-12-02T20:43:11.952Z,12.05
2018-12-02T20:45:40.309Z,12.02
2018-12-02T20:48:08.656Z,11.99
2018-12-02T20:50:37.017Z,11.98
2018-12-02T20:53:05.677Z,11.96
2018-12-02T20:55:34.141Z,11.93
2018-12-02T20:58:03.210Z,11.94
2018-12-02T21:00:31.514Z,11.97
2018-12-02T21:03:13.816Z,11.97
2018-12-02T21:05:45.550Z,11.94
2018-12-02T21:08:13.982Z,11.96
2018-12-02T21:10:42.341Z,11.96
2018-12-02T21:13:10.603Z,12.03
2018-12-02T21:15:39.012Z,12.01
2018-12-02T21:18:07.289Z,12.05
2018-12-02T21:20:35.649Z,12.04
2018-12-02T21:23:04.054Z,12.02
2018-12-02T21:25:32.312Z,12.03
2018-12-02T21:28:00.805Z,12.04
2018-12-02T21:30:29.876Z,12.00
2018-12-02T21:32:58.443Z,12.00
2018-12-02T21:35:27.070Z,12.03
2018-12-02T21:37:56.758Z,11.98
2018-12-02T21:40:25.335Z,11.98
2018-12-02T21:42:53.654Z,11.97
2018-12-02T21:45:22.019Z,12.01
2018-12-02T21:47:54.737Z,12.04
2018-12-02T21:50:26.367Z,12.05
2018-12-02T21:52:55.096Z,12.03
2018-12-02T21:55:23.388Z,12.04
2018-12-02T21:57:51.738Z,12.06
2018-12-02T22:00:25.265Z,12.04
2018-12-02T22:02:54.003Z,12.05
2018-12-02T22:05:22.262Z,12.05
2018-12-02T22:07:51.310Z,12.06
2018-12-02T22:10:22.201Z,12.07
2018-12-02T22:12:50.500Z,12.08
2018-12-02T22:15:18.799Z,12.13
2018-12-02T22:17:47.149Z,12.07
2018-12-02T22:20:16.503Z,12.17
2018-12-02T22:22:44.751Z,12.16
2018-12-02T22:25:15.983Z,12.17
2018-12-02T22:27:45.542Z,12.14
2018-12-02T22:30:16.828Z,12.15
2018-12-02T22:32:46.138Z,12.15
2018-12-02T22:35:15.408Z,12.16
2018-12-02T22:37:44.715Z,12.15
2018-12-02T22:40:18.143Z,12.09
2018-12-02T22:42:46.435Z,12.13
2018-12-02T22:45:15.886Z,12.11
2018-12-02T22:47:44.360Z,12.10
2018-12-02T22:50:13.932Z,12.18
2018-12-02T22:52:42.516Z,12.19
2018-12-02T22:55:11.565Z,12.13
2018-12-02T22:57:40.015Z,12.17
2018-12-02T23:00:17.432Z,12.12
2018-12-02T23:02:52.506Z,12.07
2018-12-02T23:05:20.994Z,12.10
2018-12-02T23:07:49.343Z,12.08
2018-12-02T23:10:17.603Z,12.10
2018-12-02T23:12:45.923Z,12.06
2018-12-02T23:15:14.188Z,12.05
2018-12-02T23:17:42.398Z,12.12
2018-12-02T23:20:11.937Z,12.10
2018-12-02T23:22:40.292Z,12.06
2018-12-02T23:25:10.850Z,12.07
2018-12-02T23:27:39.149Z,12.07
2018-12-02T23:30:14.754Z,12.01
2018-12-02T23:32:43.007Z,12.12
2018-12-02T23:35:11.291Z,12.09
2018-12-02T23:37:39.594Z,12.12
2018-12-02T23:40:11.414Z,12.10
2018-12-02T23:42:39.805Z,12.16
2018-12-02T23:45:09.417Z,12.14
2018-12-02T23:47:37.778Z,12.14
2018-12-02T23:50:14.806Z,12.10
2018-12-02T23:52:43.045Z,12.05
2018-12-02T23:55:13.082Z,12.07
2018-12-02T23:57:41.330Z,12.06
